Terminal Aerodrome Forecast
Issued by NWS

Home | Current Version | Previous Version | Text Only | Print | Product List | Glossary On
Versions: 1 2 3 4 5 6 7 8 9 10 11 12 13 14 15 16 17 18
000
FTUS43 KSGF 051400 CCA
TAFBBG
TAF COR
KBBG 051450Z 0515/0612 VRB03KT 6SM BR OVC005
     FM051600 17005KT P6SM SCT050 SCT250
     FM060000 VRB03KT P6SM SCT250
     FM060600 VRB03KT 4SM BR SKC WS018/22035KT=

USA.gov is the U.S. government's official web portal to all federal, state and local government web resources and services.